Time;durP1;ratioP1;P1;durP2;ratioP2;P2;SDS_P1;SDS_P2;PMS_P1;PMS_P2;Temp;Humidity;BMP_temperature;BMP_pressure;BME280_temperature;BME280_humidity;BME280_pressure;Samples;Min_cycle;Max_cycle;Signal;HPM_P1;HPM_P2
2022/05/05 00:01:08;;;;;;;;;;;;;;;10.41;56.96;101143.50;6151104;23;19925;-88
2022/05/05 00:03:38;;;;;;;;;;;;;;;10.35;57.25;101142.25;6154946;23;20031;-88
2022/05/05 00:06:05;;;;;;;;;;;;;;;10.29;57.49;101144.69;6177364;23;20011;-87
2022/05/05 00:08:31;;;;;;;;;;;;;;;10.33;57.70;101144.25;6149826;23;19993;-87
2022/05/05 00:16:30;;;;;;;;;;;;;;;10.26;58.19;101161.91;6156354;23;20010;-88
2022/05/05 00:18:55;;;;;;;;;;;;;;;10.21;58.55;101166.88;6152582;23;19945;-86
2022/05/05 00:21:21;;;;;;;;;;;;;;;10.13;58.63;101166.75;6151893;23;20245;-87
2022/05/05 00:23:47;;;;;;;;;;;;;;;10.08;58.89;101161.81;6152114;23;19956;-87
2022/05/05 00:26:12;;;;;;;;;;;;;;;10.18;58.50;101161.78;6178086;23;19927;-85
2022/05/05 00:28:38;;;;;;;;;;;;;;;10.11;58.74;101160.69;6177999;23;19913;-86
2022/05/05 00:31:13;;;;;;;;;;;;;;;9.99;59.07;101156.47;6151522;23;20348;-87
2022/05/05 00:33:40;;;;;;;;;;;;;;;9.94;59.25;101160.44;6176764;23;19919;-87
2022/05/05 00:36:11;;;;;;;;;;;;;;;9.89;59.59;101165.41;6174971;23;19920;-87
2022/05/05 00:38:37;;;;;;;;;;;;;;;9.83;59.94;101159.75;6129983;23;19932;-86
2022/05/05 00:41:02;;;;;;;;;;;;;;;9.70;60.26;101162.75;6179219;22;20233;-87
2022/05/05 00:43:28;;;;;;;;;;;;;;;9.63;60.59;101167.00;6152060;23;19912;-88
2022/05/05 00:45:54;;;;;;;;;;;;;;;9.55;60.92;101167.69;6150575;23;19951;-86
2022/05/05 00:48:27;;;;;;;;;;;;;;;9.42;61.39;101165.31;6149990;23;19916;-86
2022/05/05 00:50:53;;;;;;;;;;;;;;;9.43;61.70;101168.81;6152088;23;19927;-87
2022/05/05 00:53:24;;;;;;;;;;;;;;;9.42;61.62;101165.31;6151638;23;19912;-86
2022/05/05 00:55:51;;;;;;;;;;;;;;;9.47;61.64;101178.28;6152383;23;19912;-86
2022/05/05 00:58:25;;;;;;;;;;;;;;;9.39;61.88;101170.09;6181273;23;19919;-86
2022/05/05 01:00:54;;;;;;;;;;;;;;;9.32;62.03;101177.00;6177495;23;19921;-88
2022/05/05 01:03:23;;;;;;;;;;;;;;;9.39;61.86;101176.31;6152794;23;19930;-88
2022/05/05 01:05:49;;;;;;;;;;;;;;;9.43;61.67;101172.34;6178004;23;19921;-88
2022/05/05 01:08:15;;;;;;;;;;;;;;;9.48;61.50;101178.16;6150409;23;19940;-88
2022/05/05 01:10:40;;;;;;;;;;;;;;;9.44;61.44;101174.06;6178963;23;19913;-88
2022/05/05 01:13:05;;;;;;;;;;;;;;;9.40;61.44;101178.00;6182220;23;19981;-88
2022/05/05 01:15:32;;;;;;;;;;;;;;;9.50;61.47;101180.69;6186338;23;20264;-86
2022/05/05 01:17:57;;;;;;;;;;;;;;;9.55;61.13;101174.91;6160112;23;20329;-87
2022/05/05 01:20:25;;;;;;;;;;;;;;;9.52;61.08;101171.50;6185838;23;19912;-86
2022/05/05 01:22:52;;;;;;;;;;;;;;;9.66;60.63;101182.81;6160592;23;19931;-86
2022/05/05 01:28:13;;;;;;;;;;;;;;;9.61;60.82;101174.34;6188538;23;19945;-87
2022/05/05 01:30:45;;;;;;;;;;;;;;;9.65;60.86;101170.38;6163550;23;19916;-87
2022/05/05 01:33:12;;;;;;;;;;;;;;;9.72;60.56;101176.88;6187680;23;19994;-88
2022/05/05 01:35:37;;;;;;;;;;;;;;;9.69;60.75;101174.47;6164548;23;19919;-86
2022/05/05 01:38:03;;;;;;;;;;;;;;;9.71;60.79;101181.38;6133401;23;19912;-86
2022/05/05 01:40:29;;;;;;;;;;;;;;;9.75;60.70;101181.97;6157781;23;20263;-85
2022/05/05 01:42:56;;;;;;;;;;;;;;;9.81;60.52;101186.78;6160737;23;19912;-86
2022/05/05 01:45:21;;;;;;;;;;;;;;;9.82;60.53;101195.66;6195860;23;19916;-87
2022/05/05 01:47:47;;;;;;;;;;;;;;;9.86;60.37;101187.19;6198947;23;20346;-87
2022/05/05 01:50:12;;;;;;;;;;;;;;;9.85;60.50;101182.78;6194975;23;19917;-87
2022/05/05 01:52:39;;;;;;;;;;;;;;;9.94;59.98;101184.59;6153277;23;19959;-88
2022/05/05 01:55:08;;;;;;;;;;;;;;;9.90;60.11;101183.22;6152841;23;19916;-87
2022/05/05 01:57:34;;;;;;;;;;;;;;;9.99;59.91;101177.97;6179133;23;19920;-87
2022/05/05 02:00:03;;;;;;;;;;;;;;;9.98;60.04;101181.66;6180717;23;19912;-88
2022/05/05 02:02:31;;;;;;;;;;;;;;;10.08;59.91;101187.84;6187267;23;19916;-86
2022/05/05 02:04:59;;;;;;;;;;;;;;;10.11;59.83;101185.72;6193989;23;19960;-85
2022/05/05 02:07:27;;;;;;;;;;;;;;;10.12;59.76;101189.25;6161783;23;19912;-88
2022/05/05 02:09:56;;;;;;;;;;;;;;;9.93;60.26;101196.34;6177867;23;19916;-87
2022/05/05 02:12:22;;;;;;;;;;;;;;;10.23;59.73;101207.03;6153150;23;20256;-86
2022/05/05 02:14:47;;;;;;;;;;;;;;;9.97;60.67;101202.28;6178437;23;20254;-87
2022/05/05 02:17:14;;;;;;;;;;;;;;;10.20;60.04;101207.34;6179492;23;20249;-87
2022/05/05 02:19:42;;;;;;;;;;;;;;;10.26;59.98;101196.84;6179615;23;19936;-88
2022/05/05 02:22:08;;;;;;;;;;;;;;;10.26;60.07;101206.75;6127145;23;20399;-88
2022/05/05 02:24:33;;;;;;;;;;;;;;;10.24;59.83;101201.53;6178502;23;19916;-89
2022/05/05 02:26:59;;;;;;;;;;;;;;;10.07;60.57;101203.13;6179123;23;20042;-90
2022/05/05 02:29:24;;;;;;;;;;;;;;;10.09;60.58;101201.16;6178607;23;20347;-89
2022/05/05 02:31:49;;;;;;;;;;;;;;;10.11;60.71;101203.66;6151896;23;19912;-87
2022/05/05 02:34:15;;;;;;;;;;;;;;;10.15;60.66;101205.06;6176965;23;19919;-87
2022/05/05 02:39:24;;;;;;;;;;;;;;;9.99;61.49;101215.56;6177710;23;19985;-87
2022/05/05 02:41:51;;;;;;;;;;;;;;;9.99;61.46;101220.94;6178273;23;19942;-88
2022/05/05 02:44:16;;;;;;;;;;;;;;;10.03;61.60;101217.00;6151345;23;19962;-87
2022/05/05 02:46:42;;;;;;;;;;;;;;;10.12;61.61;101216.13;6151097;23;20314;-88
2022/05/05 02:49:13;;;;;;;;;;;;;;;9.97;62.30;101228.28;6177571;23;20287;-87
2022/05/05 02:51:39;;;;;;;;;;;;;;;10.01;62.60;101218.97;6127139;23;20259;-88
2022/05/05 02:56:49;;;;;;;;;;;;;;;9.81;63.62;101237.78;6154017;23;19919;-87
2022/05/05 02:59:14;;;;;;;;;;;;;;;9.89;63.47;101239.75;6178396;23;21027;-88
2022/05/05 03:01:39;;;;;;;;;;;;;;;9.91;63.50;101235.09;6151000;23;19917;-88
2022/05/05 03:04:06;;;;;;;;;;;;;;;9.71;64.02;101234.25;6184783;23;20244;-88
2022/05/05 03:06:36;;;;;;;;;;;;;;;9.79;63.94;101242.44;6177880;23;19912;-88
2022/05/05 03:09:02;;;;;;;;;;;;;;;9.87;63.76;101239.88;6125718;23;19912;-88
2022/05/05 03:11:30;;;;;;;;;;;;;;;9.94;63.56;101250.91;6176903;23;19912;-88
2022/05/05 03:13:55;;;;;;;;;;;;;;;10.04;63.38;101245.53;6151416;23;19920;-88
2022/05/05 03:16:21;;;;;;;;;;;;;;;9.96;64.09;101248.94;6179579;23;19943;-88
2022/05/05 03:18:46;;;;;;;;;;;;;;;9.97;63.97;101247.94;6151849;23;20421;-87
2022/05/05 03:21:11;;;;;;;;;;;;;;;10.03;63.86;101249.22;6178095;23;19913;-87
2022/05/05 03:23:37;;;;;;;;;;;;;;;10.04;64.05;101256.28;6180606;23;20233;-87
2022/05/05 03:26:03;;;;;;;;;;;;;;;9.93;64.51;101249.25;6178528;23;19913;-87
2022/05/05 03:28:28;;;;;;;;;;;;;;;9.93;64.65;101259.97;6178257;23;19943;-88
2022/05/05 03:30:56;;;;;;;;;;;;;;;9.89;64.79;101264.78;6194074;23;19924;-87
2022/05/05 03:33:21;;;;;;;;;;;;;;;10.08;64.38;101269.28;6199135;23;19912;-86
2022/05/05 03:35:49;;;;;;;;;;;;;;;10.14;63.92;101271.41;6167701;23;20063;-88
2022/05/05 03:38:18;;;;;;;;;;;;;;;10.28;63.63;101270.16;6186161;23;19987;-88
2022/05/05 03:40:45;;;;;;;;;;;;;;;10.40;63.24;101280.75;6177180;23;19912;-87
2022/05/05 03:43:10;;;;;;;;;;;;;;;10.52;62.74;101276.88;6177343;23;19961;-88
2022/05/05 03:45:37;;;;;;;;;;;;;;;10.73;62.03;101274.00;6150943;23;20348;-87
2022/05/05 03:48:05;;;;;;;;;;;;;;;10.74;61.82;101279.22;6179137;22;19935;-88
2022/05/05 03:50:31;;;;;;;;;;;;;;;10.81;61.67;101276.78;6178498;23;19922;-87
2022/05/05 03:53:00;;;;;;;;;;;;;;;10.87;61.36;101272.66;6166222;23;19928;-87
2022/05/05 03:55:29;;;;;;;;;;;;;;;11.00;61.14;101286.63;6170697;23;19920;-87
2022/05/05 04:01:03;;;;;;;;;;;;;;;11.06;61.81;101274.44;6184424;23;19912;-90
2022/05/05 04:03:34;;;;;;;;;;;;;;;11.31;61.61;101281.81;6167171;23;19921;-92
2022/05/05 04:06:18;;;;;;;;;;;;;;;11.44;61.34;101286.81;6171353;23;19917;-89
2022/05/05 04:09:10;;;;;;;;;;;;;;;11.36;62.14;101290.25;6174004;23;19912;-89
2022/05/05 04:11:36;;;;;;;;;;;;;;;11.55;61.86;101297.38;6166720;23;19916;-89
2022/05/05 04:14:03;;;;;;;;;;;;;;;11.45;62.39;101304.69;6172120;23;19957;-90
2022/05/05 04:16:31;;;;;;;;;;;;;;;11.60;62.40;101295.06;6134595;23;19919;-91
2022/05/05 04:19:01;;;;;;;;;;;;;;;11.55;62.54;101292.00;6191165;23;19912;-89
2022/05/05 04:21:31;;;;;;;;;;;;;;;11.74;61.93;101296.38;6173006;23;19938;-90
2022/05/05 04:23:56;;;;;;;;;;;;;;;11.55;62.74;101289.28;6200299;23;19917;-89
2022/05/05 04:26:45;;;;;;;;;;;;;;;11.54;62.70;101290.31;6172079;23;20404;-89
2022/05/05 04:29:12;;;;;;;;;;;;;;;11.72;62.09;101287.59;6179560;23;19916;-88
2022/05/05 04:31:40;;;;;;;;;;;;;;;11.78;61.63;101289.69;6178146;23;19914;-89
2022/05/05 04:34:07;;;;;;;;;;;;;;;11.94;61.22;101302.53;6165006;23;19924;-91
2022/05/05 04:36:38;;;;;;;;;;;;;;;12.06;60.36;101297.75;6159699;23;19934;-89
2022/05/05 04:39:03;;;;;;;;;;;;;;;12.26;60.14;101311.88;6133910;23;19938;-89
2022/05/05 04:41:32;;;;;;;;;;;;;;;12.29;59.54;101316.09;6150373;23;19916;-90
2022/05/05 04:43:57;;;;;;;;;;;;;;;12.06;60.40;101316.59;6149483;23;19916;-89
2022/05/05 04:46:22;;;;;;;;;;;;;;;12.29;59.99;101311.59;6151734;23;20308;-90
2022/05/05 04:48:57;;;;;;;;;;;;;;;12.52;59.71;101321.84;6149479;23;20308;-89
2022/05/05 04:51:22;;;;;;;;;;;;;;;12.58;58.96;101321.22;6126452;23;19969;-91
2022/05/05 04:53:47;;;;;;;;;;;;;;;12.76;58.80;101322.03;6152744;23;19942;-89
2022/05/05 04:56:14;;;;;;;;;;;;;;;12.90;58.25;101323.28;6154434;23;19974;-90
2022/05/05 04:58:39;;;;;;;;;;;;;;;12.77;58.49;101337.19;6152008;23;19916;-90
2022/05/05 05:01:05;;;;;;;;;;;;;;;12.83;58.35;101336.56;6124055;23;19919;-90
2022/05/05 05:03:39;;;;;;;;;;;;;;;12.85;57.97;101334.56;6177004;23;19936;-90
2022/05/05 05:06:07;;;;;;;;;;;;;;;12.78;58.42;101338.91;6184623;23;20356;-90
2022/05/05 05:08:44;;;;;;;;;;;;;;;12.70;58.66;101333.44;6163346;23;19920;-89
2022/05/05 05:11:30;;;;;;;;;;;;;;;12.89;57.95;101335.91;6135333;23;19934;-90
2022/05/05 05:13:59;;;;;;;;;;;;;;;12.87;58.31;101350.59;6182393;23;19963;-90
2022/05/05 05:16:28;;;;;;;;;;;;;;;12.89;58.20;101341.31;6130554;23;19927;-89
2022/05/05 05:18:54;;;;;;;;;;;;;;;12.95;58.20;101344.41;6153756;23;19921;-90
2022/05/05 05:21:21;;;;;;;;;;;;;;;13.19;57.40;101346.38;6132802;23;19997;-89
2022/05/05 05:23:46;;;;;;;;;;;;;;;13.30;57.08;101343.44;6184815;22;19957;-91
2022/05/05 05:26:13;;;;;;;;;;;;;;;13.29;56.77;101344.44;6155876;23;20078;-90
2022/05/05 05:28:39;;;;;;;;;;;;;;;13.44;56.50;101345.53;6132218;23;19974;-90
2022/05/05 05:31:04;;;;;;;;;;;;;;;13.51;56.71;101346.56;6181181;23;19916;-90
2022/05/05 05:33:29;;;;;;;;;;;;;;;13.68;56.00;101360.97;6136394;23;19900;-89
2022/05/05 05:35:56;;;;;;;;;;;;;;;13.69;56.12;101354.53;6176730;23;19965;-90
2022/05/05 05:38:28;;;;;;;;;;;;;;;13.85;55.95;101361.00;6171380;23;19912;-89
2022/05/05 05:40:54;;;;;;;;;;;;;;;14.12;55.05;101362.59;6142067;23;19987;-90
2022/05/05 05:43:26;;;;;;;;;;;;;;;14.03;55.04;101356.31;6169546;23;19912;-90
2022/05/05 05:45:51;;;;;;;;;;;;;;;14.23;54.60;101362.22;6152693;23;19955;-92
2022/05/05 05:48:19;;;;;;;;;;;;;;;14.16;55.06;101363.91;6151419;23;19896;-89
2022/05/05 05:50:47;;;;;;;;;;;;;;;14.15;54.85;101363.06;6162101;23;19913;-88
2022/05/05 05:53:12;;;;;;;;;;;;;;;14.21;54.58;101358.00;6161952;23;19908;-88
2022/05/05 05:55:38;;;;;;;;;;;;;;;13.97;55.28;101373.19;6155354;23;19967;-89
2022/05/05 05:58:04;;;;;;;;;;;;;;;14.04;55.18;101371.50;6154046;23;19912;-88
2022/05/05 06:00:40;;;;;;;;;;;;;;;14.14;54.76;101372.22;6154257;23;19984;-89
2022/05/05 06:06:00;;;;;;;;;;;;;;;14.43;54.09;101383.56;6181671;23;19919;-89
2022/05/05 06:08:27;;;;;;;;;;;;;;;14.48;54.00;101376.63;6159530;22;19918;-91
2022/05/05 06:10:53;;;;;;;;;;;;;;;14.80;53.36;101380.38;6159601;23;19912;-93
2022/05/05 06:13:25;;;;;;;;;;;;;;;14.88;53.08;101383.03;6160230;22;19912;-90
2022/05/05 06:16:03;;;;;;;;;;;;;;;15.16;52.38;101393.50;6184200;23;19913;-93
2022/05/05 06:18:33;;;;;;;;;;;;;;;15.16;52.15;101390.78;6184861;23;20252;-90
2022/05/05 06:20:58;;;;;;;;;;;;;;;15.46;51.15;101401.88;6181175;23;20026;-91
2022/05/05 06:23:32;;;;;;;;;;;;;;;15.45;51.22;101397.47;6156944;23;19916;-89
2022/05/05 06:25:58;;;;;;;;;;;;;;;15.70;50.34;101398.22;6154309;23;19912;-90
2022/05/05 06:28:23;;;;;;;;;;;;;;;15.78;50.47;101401.75;6156341;23;20505;-90
2022/05/05 06:30:55;;;;;;;;;;;;;;;16.02;50.76;101405.38;6156842;23;19923;-91
2022/05/05 06:39:31;;;;;;;;;;;;;;;16.15;50.76;101402.06;6293889;22;19912;-89
2022/05/05 06:42:02;;;;;;;;;;;;;;;15.98;51.48;101410.28;6201077;22;19961;-91
2022/05/05 06:44:50;;;;;;;;;;;;;;;16.31;50.83;101401.09;6189781;22;19921;-89
2022/05/05 06:47:35;;;;;;;;;;;;;;;16.18;51.10;101405.25;6184366;23;19912;-90
2022/05/05 06:50:42;;;;;;;;;;;;;;;;;;;;;
2022/05/05 06:53:21;;;;;;;;;;;;;;;;;;;;;
2022/05/05 06:58:53;;;;;;;;;;;;;;;16.53;49.87;101421.97;6185481;23;20326;-87
2022/05/05 07:07:32;;;;;;;;;;;;;;;16.89;48.46;101421.34;6187764;23;19973;-87
2022/05/05 07:52:46;;;;;;;;;;;;;;;22.77;23.34;101411.69;6211564;23;19964;-91
2022/05/05 07:58:17;;;;;;;;;;;;;;;22.87;23.50;101413.94;6174353;23;19919;-87
2022/05/05 08:01:12;;;;;;;;;;;;;;;22.40;23.41;101399.75;6226196;23;19961;-89
2022/05/05 08:03:43;;;;;;;;;;;;;;;22.31;23.78;101415.66;6202970;23;19936;-89
2022/05/05 08:06:12;;;;;;;;;;;;;;;22.31;23.39;101401.09;6170828;22;19912;-88
2022/05/05 08:08:38;;;;;;;;;;;;;;;22.33;23.58;101401.72;6187317;23;20021;-91
2022/05/05 08:11:06;;;;;;;;;;;;;;;22.17;24.38;101411.25;6162131;23;19916;-88
2022/05/05 08:13:33;;;;;;;;;;;;;;;22.22;24.68;101414.22;6184741;23;19995;-87
2022/05/05 08:15:58;;;;;;;;;;;;;;;22.00;25.21;101410.94;6169047;22;20216;-87
2022/05/05 08:18:24;;;;;;;;;;;;;;;21.85;25.60;101408.50;6182598;23;19924;-88
2022/05/05 08:20:49;;;;;;;;;;;;;;;21.58;26.38;101410.47;6183064;22;19919;-88
2022/05/05 08:23:15;;;;;;;;;;;;;;;21.68;26.55;101410.00;6208873;23;19912;-89
2022/05/05 08:28:29;;;;;;;;;;;;;;;21.40;27.45;101404.84;6187088;23;19961;-90
2022/05/05 08:30:59;;;;;;;;;;;;;;;21.48;27.34;101397.25;6183585;23;19920;-88
2022/05/05 08:33:27;;;;;;;;;;;;;;;21.77;26.93;101400.50;6212200;23;19912;-90
2022/05/05 08:35:52;;;;;;;;;;;;;;;22.03;26.50;101409.66;6160200;23;19920;-92
2022/05/05 08:38:18;;;;;;;;;;;;;;;22.29;26.12;101408.72;6211553;23;19912;-91
2022/05/05 08:40:44;;;;;;;;;;;;;;;22.37;25.85;101410.34;6186876;23;19969;-90
2022/05/05 08:43:09;;;;;;;;;;;;;;;22.07;26.47;101406.25;6215097;23;20246;-91
2022/05/05 08:45:36;;;;;;;;;;;;;;;22.24;26.50;101411.25;6214642;23;19920;-91
2022/05/05 08:48:08;;;;;;;;;;;;;;;22.05;26.12;101423.97;6189375;23;20582;-91
2022/05/05 08:50:40;;;;;;;;;;;;;;;21.52;26.25;101419.56;6184146;23;20328;-92
2022/05/05 08:53:24;;;;;;;;;;;;;;;21.37;26.52;101417.03;6214905;23;19970;-92
2022/05/05 08:58:53;;;;;;;;;;;;;;;21.66;26.15;101415.72;6216815;23;19949;-89
2022/05/05 09:01:19;;;;;;;;;;;;;;;23.80;23.96;101415.75;6187400;23;19934;-89
2022/05/05 09:03:54;;;;;;;;;;;;;;;23.56;24.42;101413.91;6189836;23;19912;-90
2022/05/05 09:09:28;;;;;;;;;;;;;;;22.92;25.61;101414.13;6225737;23;20017;-90
2022/05/05 09:12:21;;;;;;;;;;;;;;;22.80;25.55;101426.03;6219075;23;19952;-89
2022/05/05 09:14:58;;;;;;;;;;;;;;;22.97;24.81;101416.19;6227666;23;19908;-90
2022/05/05 09:17:24;;;;;;;;;;;;;;;23.08;24.73;101422.84;6213321;23;19923;-88
2022/05/05 09:19:57;;;;;;;;;;;;;;;23.27;24.44;101430.06;6206368;23;19927;-90
2022/05/05 09:22:28;;;;;;;;;;;;;;;22.99;28.24;101418.72;6234518;23;19947;-89
2022/05/05 09:25:20;;;;;;;;;;;;;;;23.50;23.13;101420.31;6211773;23;19904;-93
2022/05/05 09:30:55;;;;;;;;;;;;;;;24.60;22.08;101431.13;6233280;23;19930;-92
2022/05/05 09:36:28;;;;;;;;;;;;;;;24.64;22.28;101437.84;6233267;23;19981;-90
2022/05/05 09:39:01;;;;;;;;;;;;;;;24.59;22.14;101434.97;6209782;23;19907;-94
2022/05/05 09:41:32;;;;;;;;;;;;;;;24.33;21.69;101438.09;6198957;23;19922;-91
2022/05/05 09:46:52;;;;;;;;;;;;;;;23.64;22.18;101427.31;6214001;23;19912;-91
2022/05/05 09:58:09;;;;;;;;;;;;;;;25.05;21.14;101425.09;6175346;23;19912;-88
2022/05/05 10:01:00;;;;;;;;;;;;;;;24.92;20.20;101430.00;6115611;23;20395;-91
2022/05/05 10:06:22;;;;;;;;;;;;;;;25.10;22.86;101440.88;6131901;23;19984;-91
2022/05/05 10:08:57;;;;;;;;;;;;;;;24.28;30.26;101448.91;6103816;23;19900;-92
2022/05/05 10:11:25;;;;;;;;;;;;;;;24.90;31.12;101467.91;6128843;23;19917;-94
2022/05/05 10:13:52;;;;;;;;;;;;;;;24.68;32.39;101451.09;6168571;22;19969;-93
2022/05/05 10:16:20;;;;;;;;;;;;;;;26.13;30.49;101455.00;6167461;22;19927;-91
2022/05/05 10:18:46;;;;;;;;;;;;;;;26.30;29.45;101450.38;6194159;23;19931;-92
2022/05/05 10:21:11;;;;;;;;;;;;;;;24.08;33.17;101458.28;6232473;23;20730;-91
2022/05/05 10:23:53;;;;;;;;;;;;;;;24.11;33.80;101465.22;6223416;22;19912;-92
2022/05/05 10:26:23;;;;;;;;;;;;;;;22.80;35.99;101465.22;6214709;22;19982;-93
2022/05/05 10:28:49;;;;;;;;;;;;;;;22.56;37.02;101464.16;6190974;23;19916;-93
2022/05/05 10:31:38;;;;;;;;;;;;;;;24.10;34.55;101456.16;6191142;23;19915;-93
2022/05/05 10:34:11;;;;;;;;;;;;;;;23.50;34.84;101461.47;6194040;22;19955;-93
2022/05/05 10:39:59;;;;;;;;;;;;;;;24.95;32.87;101460.59;6229785;23;19934;-95
2022/05/05 10:42:33;;;;;;;;;;;;;;;25.97;31.04;101462.13;6207545;23;19900;-92
2022/05/05 10:45:28;;;;;;;;;;;;;;;26.92;29.96;101454.22;6232807;22;19930;-93
2022/05/05 10:48:23;;;;;;;;;;;;;;;27.42;29.00;101461.66;6233935;23;19940;-94
2022/05/05 10:51:03;;;;;;;;;;;;;;;27.00;29.16;101458.50;6216425;23;19912;-92
2022/05/05 10:53:37;;;;;;;;;;;;;;;26.54;29.89;101461.31;6221095;22;19922;-93
2022/05/05 10:56:27;;;;;;;;;;;;;;;27.58;28.65;101457.16;6170401;22;19990;-93
2022/05/05 10:59:00;;;;;;;;;;;;;;;26.37;29.76;101457.66;6208573;23;19930;-92
2022/05/05 11:01:33;;;;;;;;;;;;;;;26.24;30.70;101456.84;6193030;23;20344;-93
2022/05/05 11:04:23;;;;;;;;;;;;;;;26.64;29.92;101463.41;6222184;23;19912;-94
2022/05/05 11:07:11;;;;;;;;;;;;;;;23.99;34.26;101470.66;6193754;22;19912;-93
2022/05/05 11:09:50;;;;;;;;;;;;;;;23.87;34.72;101475.25;6226836;23;19927;-93
2022/05/05 11:12:22;;;;;;;;;;;;;;;24.42;33.13;101477.91;6220124;23;20365;-93
2022/05/05 11:23:43;;;;;;;;;;;;;;;24.65;32.86;101482.66;6208968;23;19942;-92
2022/05/05 11:26:33;;;;;;;;;;;;;;;24.38;32.56;101488.50;6231761;23;19923;-93
2022/05/05 11:29:32;;;;;;;;;;;;;;;23.21;34.66;101477.59;6209982;23;19960;-93
2022/05/05 11:32:25;;;;;;;;;;;;;;;22.55;35.70;101474.28;6176877;22;19916;-93
2022/05/05 11:34:53;;;;;;;;;;;;;;;21.78;37.62;101488.94;6230924;23;19915;-93
2022/05/05 11:37:29;;;;;;;;;;;;;;;21.00;38.76;101487.75;6197711;23;19916;-93
2022/05/05 11:40:02;;;;;;;;;;;;;;;20.72;39.84;101496.16;6202998;23;19931;-94
2022/05/05 11:42:29;;;;;;;;;;;;;;;20.01;40.86;101494.63;6194789;22;19912;-93
2022/05/05 11:44:56;;;;;;;;;;;;;;;20.02;41.05;101490.03;6194487;23;19920;-94
2022/05/05 11:47:24;;;;;;;;;;;;;;;20.25;40.79;101495.13;6196013;23;19966;-91
2022/05/05 11:49:52;;;;;;;;;;;;;;;19.74;41.30;101490.94;6196291;23;19912;-92
2022/05/05 11:52:25;;;;;;;;;;;;;;;19.66;41.70;101498.41;6196348;23;19912;-94
2022/05/05 11:55:13;;;;;;;;;;;;;;;19.87;41.09;101503.78;6198693;23;19923;-92
2022/05/05 11:57:45;;;;;;;;;;;;;;;19.47;41.74;101506.25;6195700;23;19935;-92
2022/05/05 12:02:59;;;;;;;;;;;;;;;19.08;42.77;101507.66;6197896;23;20000;-91
2022/05/05 12:05:27;;;;;;;;;;;;;;;19.27;42.10;101506.13;6201754;23;20029;-91
2022/05/05 12:08:00;;;;;;;;;;;;;;;19.22;42.94;101503.13;6222030;23;19908;-92
2022/05/05 12:10:33;;;;;;;;;;;;;;;19.72;41.46;101500.38;6198112;23;19912;-92
2022/05/05 12:12:59;;;;;;;;;;;;;;;19.65;41.39;101494.00;6214527;23;19952;-91
2022/05/05 12:15:29;;;;;;;;;;;;;;;19.60;40.96;101500.06;6185225;23;19912;-92
2022/05/05 12:17:59;;;;;;;;;;;;;;;19.31;41.52;101506.56;6214049;23;19916;-93
2022/05/05 12:20:39;;;;;;;;;;;;;;;18.98;42.46;101505.22;6185662;23;19908;-93
2022/05/05 12:23:08;;;;;;;;;;;;;;;19.18;42.28;101516.31;6223412;22;19896;-92
2022/05/05 12:25:36;;;;;;;;;;;;;;;19.27;42.31;101513.44;6188690;23;19927;-94
2022/05/05 12:28:09;;;;;;;;;;;;;;;19.19;42.22;101509.81;6236778;22;19941;-93
2022/05/05 12:30:41;;;;;;;;;;;;;;;19.01;43.13;101503.16;6224746;23;20376;-92
2022/05/05 12:33:07;;;;;;;;;;;;;;;18.84;43.18;101508.03;6173961;23;19908;-93
2022/05/05 12:35:33;;;;;;;;;;;;;;;18.49;44.02;101508.69;6177609;23;19982;-92
2022/05/05 12:38:00;;;;;;;;;;;;;;;18.83;43.74;101506.38;6168177;23;19916;-95
2022/05/05 12:40:26;;;;;;;;;;;;;;;18.92;43.57;101516.94;6163684;23;19908;-92
2022/05/05 12:42:58;;;;;;;;;;;;;;;18.72;43.46;101504.97;6219212;23;19912;-92
2022/05/05 12:45:28;;;;;;;;;;;;;;;18.58;43.82;101503.97;6193402;23;19920;-92
2022/05/05 12:47:54;;;;;;;;;;;;;;;18.41;44.32;101508.81;6169308;22;19915;-95
2022/05/05 12:51:01;;;;;;;;;;;;;;;18.65;43.66;101510.34;6161530;23;19937;-93
2022/05/05 13:01:45;;;;;;;;;;;;;;;17.97;45.48;101522.50;6147176;23;19942;-92
2022/05/05 13:04:15;;;;;;;;;;;;;;;17.87;45.08;101511.91;6166289;23;20282;-93
2022/05/05 13:06:50;;;;;;;;;;;;;;;17.92;45.19;101510.31;6159395;22;19917;-93
2022/05/05 13:09:27;;;;;;;;;;;;;;;18.05;44.63;101509.66;6184000;23;19913;-92
2022/05/05 13:12:04;;;;;;;;;;;;;;;18.45;44.14;101512.00;6185803;23;19987;-93
2022/05/05 13:14:36;;;;;;;;;;;;;;;18.56;44.25;101516.94;6156006;23;19922;-95
2022/05/05 13:17:19;;;;;;;;;;;;;;;18.54;43.24;101519.88;6162083;23;19969;-92
2022/05/05 13:19:48;;;;;;;;;;;;;;;18.55;43.69;101515.25;6149476;23;19916;-91
2022/05/05 13:22:21;;;;;;;;;;;;;;;18.68;42.79;101520.88;6184644;22;19919;-91
2022/05/05 13:24:47;;;;;;;;;;;;;;;18.33;43.47;101523.41;6183718;23;19971;-89
2022/05/05 13:27:24;;;;;;;;;;;;;;;18.20;43.58;101527.84;6175697;23;19921;-90
2022/05/05 13:29:57;;;;;;;;;;;;;;;18.10;43.63;101528.13;6174686;23;19912;-94
2022/05/05 13:32:24;;;;;;;;;;;;;;;18.06;43.66;101521.38;6163837;23;20316;-91
2022/05/05 13:35:11;;;;;;;;;;;;;;;18.42;42.85;101526.00;6166230;22;19952;-93
2022/05/05 13:37:37;;;;;;;;;;;;;;;18.65;41.13;101529.41;6182265;22;19927;-93
2022/05/05 13:40:06;;;;;;;;;;;;;;;18.69;40.14;101522.53;6186067;22;19912;-92
2022/05/05 13:42:36;;;;;;;;;;;;;;;18.98;39.06;101518.84;6189019;23;20354;-96
2022/05/05 13:45:18;;;;;;;;;;;;;;;19.19;37.52;101523.44;6294912;22;19912;-92
2022/05/05 13:48:14;;;;;;;;;;;;;;;19.13;37.75;101523.41;6186644;23;19916;-91
2022/05/05 14:03:23;;;;;;;;;;;;;;;18.19;36.71;101548.78;6226997;23;19927;-95
2022/05/05 14:06:15;;;;;;;;;;;;;;;18.02;38.52;101536.38;6226609;22;19916;-93
2022/05/05 14:14:36;;;;;;;;;;;;;;;18.42;35.91;101529.56;6217041;23;19923;-94
2022/05/05 14:17:03;;;;;;;;;;;;;;;18.58;34.40;101528.47;6184402;23;19912;-90
2022/05/05 14:19:28;;;;;;;;;;;;;;;18.72;33.47;101534.91;6188737;23;19912;-91
2022/05/05 14:22:03;;;;;;;;;;;;;;;18.65;33.31;101525.84;6196721;23;19911;-91
2022/05/05 14:24:30;;;;;;;;;;;;;;;18.69;32.90;101525.25;6229240;23;19943;-90
2022/05/05 14:26:56;;;;;;;;;;;;;;;18.79;32.48;101529.56;6208245;23;19923;-89
2022/05/05 14:29:22;;;;;;;;;;;;;;;18.88;32.54;101526.53;6208585;23;19908;-92
2022/05/05 14:31:53;;;;;;;;;;;;;;;18.52;33.30;101532.84;6199463;22;19923;-91
2022/05/05 14:34:29;;;;;;;;;;;;;;;18.81;34.13;101528.34;6222347;22;19965;-91
2022/05/05 14:37:21;;;;;;;;;;;;;;;18.76;33.93;101531.66;6197450;23;19916;-92
2022/05/05 14:40:13;;;;;;;;;;;;;;;18.73;33.85;101537.47;6229243;22;19908;-94
2022/05/05 14:42:40;;;;;;;;;;;;;;;18.69;33.08;101541.59;6202626;23;19932;-95
2022/05/05 14:45:10;;;;;;;;;;;;;;;18.53;31.60;101541.84;6186004;23;19923;-94
2022/05/05 14:47:43;;;;;;;;;;;;;;;18.18;34.25;101536.19;6209026;23;19916;-94
2022/05/05 14:50:09;;;;;;;;;;;;;;;18.15;34.34;101542.00;6236315;23;19947;-94
2022/05/05 14:52:34;;;;;;;;;;;;;;;18.17;34.78;101537.22;6237335;23;19919;-93
2022/05/05 14:55:05;;;;;;;;;;;;;;;18.37;34.24;101542.06;6209862;23;19959;-94
2022/05/05 14:57:32;;;;;;;;;;;;;;;18.04;30.91;101545.22;6223306;23;20324;-92
2022/05/05 15:00:10;;;;;;;;;;;;;;;18.21;31.77;101541.22;6222867;22;19908;-92
2022/05/05 15:02:43;;;;;;;;;;;;;;;18.00;31.59;101530.28;6214990;23;19923;-91
2022/05/05 15:05:12;;;;;;;;;;;;;;;17.81;33.72;101537.97;6193314;23;19976;-92
2022/05/05 15:08:01;;;;;;;;;;;;;;;17.46;35.25;101540.34;6199784;23;19930;-92
2022/05/05 15:10:54;;;;;;;;;;;;;;;17.29;35.61;101536.09;6199059;23;19916;-93
2022/05/05 15:13:22;;;;;;;;;;;;;;;17.46;34.89;101539.50;6192210;23;19919;-92
2022/05/05 15:15:48;;;;;;;;;;;;;;;17.64;34.01;101536.44;6217548;23;19912;-94
2022/05/05 15:18:13;;;;;;;;;;;;;;;17.64;34.88;101533.72;6164738;23;19912;-94
2022/05/05 15:20:39;;;;;;;;;;;;;;;17.68;34.37;101546.78;6190571;23;19927;-94
2022/05/05 15:23:08;;;;;;;;;;;;;;;17.32;34.20;101537.59;6188562;22;19923;-93
2022/05/05 15:25:35;;;;;;;;;;;;;;;17.40;34.14;101538.38;6164488;23;19919;-93
2022/05/05 15:28:01;;;;;;;;;;;;;;;17.36;33.57;101539.78;6196656;23;19918;-93
2022/05/05 15:30:29;;;;;;;;;;;;;;;17.58;33.47;101539.91;6223346;22;19920;-94